Dusty Bend, South Carolina
Current Conditions -  °F | °C
As of 12:35 PM on Thursday 30 Oct 2014 (Local Time) from KCDN Reporting Station
Clear Clear  
Wind Chill: 66°   Ceiling: Unl
Heat Index: 66°   Visibility: 10mi
Dew Point: 41°   Wind: 13mph
Humidity: 40%   Direction: 50°NE
Pressure: 30.04"   Gusts: 18mph
Location:  34.2974°N, 80.6089°W
Report Text: KCDN 301635Z AUTO 05011G16KT 10SM CLR 19/05 A3004 RMK AO2 TSNO
Loading
Personal Weather Stations






























Interactive Weather Map
Tropical Storm Tracking
New forecast layout! Learn more

10-Day Weather Forecast

Advertisements
Track Severe Weather on mobile